Time;durP1;ratioP1;P1;durP2;ratioP2;P2;SDS_P1;SDS_P2;PMS_P1;PMS_P2;Temp;Humidity;BMP_temperature;BMP_pressure;BME280_temperature;BME280_humidity;BME280_pressure;Samples;Min_cycle;Max_cycle;Signal;HPM_P1;HPM_P2
2022/04/08 00:00:57;;;;;;;33.22;7.07;;;14.20;99.90;;;;;;5073613;28;20036;-83
2022/04/08 00:03:24;;;;;;;33.33;7.38;;;14.20;99.90;;;;;;5073411;28;20032;-82
2022/04/08 00:05:51;;;;;;;39.38;7.45;;;14.20;99.90;;;;;;5073711;28;20044;-79
2022/04/08 00:08:17;;;;;;;31.27;7.15;;;14.20;99.90;;;;;;5073467;28;20066;-81
2022/04/08 00:10:43;;;;;;;37.65;7.35;;;14.10;99.90;;;;;;5073591;28;20025;-82
2022/04/08 00:13:08;;;;;;;34.05;6.50;;;14.10;99.90;;;;;;5073437;28;20033;-82
2022/04/08 00:15:36;;;;;;;33.90;6.72;;;14.10;99.90;;;;;;5073414;28;20103;-82
2022/04/08 00:18:01;;;;;;;36.75;7.22;;;14.10;99.90;;;;;;5073305;28;20025;-82
2022/04/08 00:20:27;;;;;;;33.22;7.32;;;14.10;99.90;;;;;;5083055;28;20031;-80
2022/04/08 00:22:53;;;;;;;35.78;6.60;;;14.10;99.90;;;;;;5080598;28;20075;-82
2022/04/08 00:25:19;;;;;;;36.97;6.90;;;14.10;99.90;;;;;;5055590;28;20066;-80
2022/04/08 00:27:45;;;;;;;26.90;6.25;;;14.10;99.90;;;;;;5076587;28;20024;-80
2022/04/08 00:30:11;;;;;;;30.23;6.13;;;14.10;99.90;;;;;;5087002;28;20025;-80
2022/04/08 00:32:37;;;;;;;28.15;6.97;;;14.10;99.90;;;;;;5062304;28;20036;-82
2022/04/08 00:35:02;;;;;;;30.85;5.72;;;14.10;99.90;;;;;;5074570;28;20024;-81
2022/04/08 00:37:28;;;;;;;30.85;6.93;;;14.10;99.90;;;;;;5073217;28;20453;-80
2022/04/08 00:39:54;;;;;;;30.17;5.88;;;14.10;99.90;;;;;;5073878;28;20040;-81
2022/04/08 00:42:20;;;;;;;34.20;6.88;;;14.10;99.90;;;;;;5073336;28;20039;-81
2022/04/08 00:44:45;;;;;;;35.03;6.80;;;14.10;99.90;;;;;;5055165;28;20524;-80
2022/04/08 00:47:11;;;;;;;28.60;5.90;;;14.10;99.90;;;;;;5072935;28;20100;-79
2022/04/08 00:49:38;;;;;;;30.35;6.35;;;14.10;99.90;;;;;;5054912;28;20043;-81
2022/04/08 00:52:04;;;;;;;27.35;6.10;;;14.10;99.90;;;;;;5072768;28;20024;-81
2022/04/08 00:54:30;;;;;;;31.00;6.05;;;14.10;99.90;;;;;;5072648;28;20021;-78
2022/04/08 00:56:59;;;;;;;31.02;6.57;;;14.10;99.90;;;;;;5072765;28;20393;-79
2022/04/08 00:59:26;;;;;;;28.45;6.03;;;14.10;99.90;;;;;;5072616;28;20063;-78
2022/04/08 01:01:52;;;;;;;28.15;5.80;;;14.20;99.90;;;;;;5072685;28;20028;-81
2022/04/08 01:04:21;;;;;;;29.45;6.82;;;14.20;99.90;;;;;;5072451;28;20031;-79
2022/04/08 01:06:47;;;;;;;27.77;6.15;;;14.10;99.90;;;;;;5054924;28;20386;-79
2022/04/08 01:09:14;;;;;;;32.20;5.88;;;14.20;99.90;;;;;;5072535;28;20047;-81
2022/04/08 01:11:40;;;;;;;33.28;6.28;;;14.20;99.90;;;;;;5073087;28;20094;-79
2022/04/08 01:14:10;;;;;;;27.05;6.65;;;14.20;99.90;;;;;;5072864;28;20094;-77
2022/04/08 01:16:36;;;;;;;29.77;6.05;;;14.20;99.90;;;;;;5072491;28;20024;-81
2022/04/08 01:19:03;;;;;;;28.90;6.20;;;14.30;99.90;;;;;;5072388;28;20033;-80
2022/04/08 01:21:28;;;;;;;31.42;6.15;;;14.20;99.90;;;;;;5072462;28;20115;-78
2022/04/08 01:23:56;;;;;;;37.20;7.28;;;14.20;99.90;;;;;;5072163;28;20203;-80
2022/04/08 01:26:22;;;;;;;34.17;6.07;;;14.20;99.90;;;;;;5054067;28;20493;-81
2022/04/08 01:28:48;;;;;;;30.00;5.80;;;14.30;99.90;;;;;;5072580;28;20184;-79
2022/04/08 01:31:15;;;;;;;26.83;5.22;;;14.30;99.90;;;;;;5072269;28;20055;-79
2022/04/08 01:33:41;;;;;;;32.75;5.88;;;14.30;99.90;;;;;;5072165;28;20454;-80
2022/04/08 01:36:07;;;;;;;29.33;6.38;;;14.30;99.90;;;;;;5072220;28;20025;-80
2022/04/08 01:38:33;;;;;;;29.95;5.93;;;14.40;99.90;;;;;;5075348;28;20370;-78
2022/04/08 01:40:59;;;;;;;28.35;6.07;;;14.30;99.90;;;;;;5076235;28;20035;-79
2022/04/08 01:43:25;;;;;;;27.17;6.25;;;14.30;99.90;;;;;;5076584;28;20524;-80
2022/04/08 01:45:50;;;;;;;25.60;6.00;;;14.30;99.90;;;;;;5075930;28;20048;-79
2022/04/08 01:48:17;;;;;;;29.13;6.63;;;14.30;99.90;;;;;;5076117;28;20055;-80
2022/04/08 01:50:43;;;;;;;27.90;5.72;;;14.30;99.90;;;;;;5077033;28;20032;-79
2022/04/08 01:53:09;;;;;;;32.17;6.95;;;14.20;99.90;;;;;;5077005;28;20138;-79
2022/04/08 01:55:34;;;;;;;28.83;6.65;;;14.20;99.90;;;;;;5076215;28;20500;-80
2022/04/08 01:58:02;;;;;;;21.88;4.55;;;14.20;99.90;;;;;;5076285;28;20078;-81
2022/04/08 02:00:29;;;;;;;33.55;6.25;;;14.30;99.90;;;;;;5076089;28;20032;-81
2022/04/08 02:02:54;;;;;;;26.27;6.13;;;14.40;99.90;;;;;;5076569;28;20494;-80
2022/04/08 02:05:20;;;;;;;40.08;6.85;;;14.40;99.90;;;;;;5076047;28;20158;-79
2022/04/08 02:07:46;;;;;;;27.38;5.75;;;14.50;99.90;;;;;;5076288;28;20020;-80
2022/04/08 02:10:11;;;;;;;29.45;6.45;;;14.50;99.90;;;;;;5075662;28;20098;-80
2022/04/08 02:12:37;;;;;;;30.33;6.43;;;14.50;99.90;;;;;;5057793;28;20477;-81
2022/04/08 02:15:03;;;;;;;31.92;6.68;;;14.50;99.90;;;;;;5075565;28;20017;-79
2022/04/08 02:17:30;;;;;;;27.60;6.05;;;14.50;99.90;;;;;;5075527;28;20203;-80
2022/04/08 02:19:56;;;;;;;32.72;6.28;;;14.50;99.90;;;;;;5057381;28;20369;-81
2022/04/08 02:22:26;;;;;;;29.42;6.60;;;14.50;99.90;;;;;;5075593;28;20044;-79
2022/04/08 02:24:52;;;;;;;35.75;6.50;;;14.60;99.90;;;;;;5075291;28;20029;-81
2022/04/08 02:27:19;;;;;;;25.45;5.63;;;14.60;99.90;;;;;;5075527;28;20439;-82
2022/04/08 02:29:44;;;;;;;32.35;5.93;;;14.60;99.90;;;;;;5075246;28;20090;-80
2022/04/08 02:32:10;;;;;;;30.63;7.15;;;14.60;99.90;;;;;;5075444;28;20025;-80
2022/04/08 02:34:39;;;;;;;28.70;6.28;;;14.60;99.90;;;;;;5075197;28;20060;-82
2022/04/08 02:37:08;;;;;;;30.45;6.00;;;14.60;99.90;;;;;;5075107;28;20082;-80
2022/04/08 02:39:33;;;;;;;29.45;6.30;;;14.60;99.90;;;;;;5074915;28;20116;-82
2022/04/08 02:41:59;;;;;;;34.53;6.60;;;14.60;99.90;;;;;;5075039;28;20100;-80
2022/04/08 02:44:25;;;;;;;32.63;6.82;;;14.60;99.90;;;;;;5075073;28;20044;-79
2022/04/08 02:46:51;;;;;;;39.00;7.53;;;14.60;99.90;;;;;;5076199;28;20032;-81
2022/04/08 02:49:16;;;;;;;36.85;6.72;;;14.60;99.90;;;;;;5075785;28;20020;-81
2022/04/08 02:51:42;;;;;;;35.88;7.03;;;14.60;99.90;;;;;;5075796;28;20500;-80
2022/04/08 02:54:10;;;;;;;33.90;6.53;;;14.70;99.90;;;;;;5075790;28;20055;-81
2022/04/08 02:56:39;;;;;;;31.52;5.85;;;14.70;99.90;;;;;;5076237;28;20020;-80
2022/04/08 02:59:04;;;;;;;32.58;5.97;;;14.70;99.90;;;;;;5075801;28;20039;-83
2022/04/08 03:01:30;;;;;;;37.55;6.40;;;14.70;99.90;;;;;;5057113;28;20111;-80
2022/04/08 03:03:56;;;;;;;27.25;5.82;;;14.70;99.90;;;;;;5075079;28;20094;-81
2022/04/08 03:06:21;;;;;;;31.42;6.20;;;14.60;99.90;;;;;;5075907;28;20133;-81
2022/04/08 03:08:47;;;;;;;29.95;6.13;;;14.60;99.90;;;;;;5079317;28;20024;-80
2022/04/08 03:11:13;;;;;;;41.28;7.80;;;14.60;99.90;;;;;;5091771;28;20096;-80
2022/04/08 03:13:38;;;;;;;30.48;6.10;;;14.50;99.90;;;;;;5085139;28;20033;-79
2022/04/08 03:16:04;;;;;;;37.22;8.25;;;14.50;99.90;;;;;;5079285;28;20044;-79
2022/04/08 03:18:30;;;;;;;33.22;7.45;;;14.50;99.90;;;;;;5078196;28;20534;-79
2022/04/08 03:20:56;;;;;;;29.73;6.18;;;14.40;99.90;;;;;;5077229;28;20082;-80
2022/04/08 03:23:21;;;;;;;42.22;6.75;;;14.40;99.90;;;;;;5075987;28;20021;-79
2022/04/08 03:25:47;;;;;;;36.10;6.80;;;14.40;99.90;;;;;;5076930;28;20016;-78
2022/04/08 03:28:13;;;;;;;33.40;6.75;;;14.30;99.90;;;;;;5076571;28;20027;-79
2022/04/08 03:30:40;;;;;;;34.15;6.50;;;14.30;99.90;;;;;;5076929;28;20027;-78
2022/04/08 03:33:06;;;;;;;33.15;7.13;;;14.30;99.90;;;;;;5076463;28;20020;-77
2022/04/08 03:35:32;;;;;;;35.88;7.38;;;14.30;99.90;;;;;;5076076;28;20017;-80
2022/04/08 03:37:58;;;;;;;32.53;7.13;;;14.30;99.90;;;;;;5075564;28;20371;-79
2022/04/08 03:40:24;;;;;;;35.75;7.88;;;14.20;99.90;;;;;;5075086;28;20039;-79
2022/04/08 03:42:49;;;;;;;35.28;6.25;;;14.20;99.90;;;;;;5075672;28;20021;-79
2022/04/08 03:45:15;;;;;;;24.30;7.03;;;14.20;99.90;;;;;;5075460;28;20118;-79
2022/04/08 03:47:41;;;;;;;27.00;6.95;;;14.10;99.90;;;;;;5074368;28;20091;-80
2022/04/08 03:50:07;;;;;;;31.08;6.55;;;14.10;99.90;;;;;;5073575;28;20070;-78
2022/04/08 03:52:33;;;;;;;34.25;7.60;;;14.10;99.90;;;;;;5073754;28;20028;-79
2022/04/08 03:55:00;;;;;;;36.88;7.38;;;14.10;99.90;;;;;;5073598;28;20017;-78
2022/04/08 03:57:26;;;;;;;31.85;8.18;;;14.10;99.90;;;;;;5074195;28;20024;-79
2022/04/08 03:59:52;;;;;;;32.22;6.82;;;14.10;99.90;;;;;;5073683;28;20044;-78
2022/04/08 04:02:18;;;;;;;37.95;7.00;;;14.10;99.90;;;;;;5073830;28;20074;-79
2022/04/08 04:04:44;;;;;;;30.63;6.50;;;14.00;99.90;;;;;;5073466;28;20020;-78
2022/04/08 04:07:09;;;;;;;27.00;6.78;;;14.00;99.90;;;;;;5073599;28;20036;-78
2022/04/08 04:09:35;;;;;;;26.05;6.28;;;14.00;99.90;;;;;;5073541;28;20326;-79
2022/04/08 04:12:01;;;;;;;29.40;6.75;;;14.00;99.90;;;;;;5073371;28;20040;-78
2022/04/08 04:14:26;;;;;;;28.85;6.57;;;14.00;99.90;;;;;;5073306;28;20028;-78
2022/04/08 04:16:52;;;;;;;33.00;6.68;;;14.00;99.90;;;;;;5073381;28;20024;-79
2022/04/08 04:19:18;;;;;;;26.33;6.45;;;14.00;99.90;;;;;;5073297;28;20094;-79
2022/04/08 04:21:44;;;;;;;33.05;7.45;;;14.00;99.90;;;;;;5073358;28;20025;-80
2022/04/08 04:24:10;;;;;;;37.40;7.43;;;14.00;99.90;;;;;;5073150;28;20218;-84
2022/04/08 04:26:36;;;;;;;39.20;7.20;;;14.00;99.90;;;;;;5073113;28;20126;-80
2022/04/08 04:29:02;;;;;;;37.97;7.15;;;14.00;99.90;;;;;;5073015;28;20052;-78
2022/04/08 04:31:28;;;;;;;33.55;7.40;;;14.10;99.90;;;;;;5073087;28;20056;-78
2022/04/08 04:33:53;;;;;;;34.38;6.60;;;14.10;99.90;;;;;;5072938;28;20025;-78
2022/04/08 04:36:19;;;;;;;33.78;6.60;;;14.10;99.90;;;;;;5073356;28;20027;-79
2022/04/08 04:38:45;;;;;;;31.75;7.00;;;14.20;99.90;;;;;;5054879;28;20119;-79
2022/04/08 04:41:10;;;;;;;34.13;8.18;;;14.20;99.90;;;;;;5073082;28;20082;-80
2022/04/08 04:43:36;;;;;;;33.92;7.60;;;14.20;99.90;;;;;;5055195;28;20469;-79
2022/04/08 04:46:05;;;;;;;30.60;7.30;;;14.20;99.90;;;;;;5072915;28;20101;-80
2022/04/08 04:48:30;;;;;;;30.75;6.93;;;14.10;99.90;;;;;;5054903;28;20485;-79
2022/04/08 04:50:56;;;;;;;39.15;7.90;;;14.10;99.90;;;;;;5072929;28;20146;-79
2022/04/08 04:53:23;;;;;;;36.15;7.68;;;14.10;99.90;;;;;;5072967;28;20036;-79
2022/04/08 04:55:49;;;;;;;38.05;7.95;;;14.10;99.90;;;;;;5072996;28;20100;-80
2022/04/08 04:58:15;;;;;;;27.52;7.18;;;14.20;99.90;;;;;;5073031;28;20513;-79
2022/04/08 05:00:40;;;;;;;32.97;6.97;;;14.20;99.90;;;;;;5072716;28;20027;-79
2022/04/08 05:03:08;;;;;;;32.20;6.43;;;14.20;99.90;;;;;;5054741;28;20146;-80
2022/04/08 05:05:34;;;;;;;32.50;6.93;;;14.30;99.90;;;;;;5072604;28;20078;-81
2022/04/08 05:08:04;;;;;;;32.72;6.88;;;14.30;99.90;;;;;;5054805;28;20022;-81
2022/04/08 05:10:31;;;;;;;32.92;7.75;;;14.30;99.90;;;;;;5072660;28;20028;-82
2022/04/08 05:12:59;;;;;;;29.52;6.85;;;14.40;99.90;;;;;;5054342;28;20579;-80
2022/04/08 05:15:26;;;;;;;29.77;7.70;;;14.40;99.90;;;;;;5072592;28;20112;-79
2022/04/08 05:17:52;;;;;;;25.92;6.57;;;14.40;99.90;;;;;;5072523;28;20099;-79
2022/04/08 05:20:19;;;;;;;32.58;7.78;;;14.50;99.90;;;;;;5072616;28;20025;-79
2022/04/08 05:22:45;;;;;;;32.78;6.68;;;14.50;99.90;;;;;;5072488;28;20470;-80
2022/04/08 05:25:10;;;;;;;25.70;7.38;;;14.60;99.90;;;;;;5072530;28;20027;-80
2022/04/08 05:27:38;;;;;;;25.45;7.47;;;14.70;99.90;;;;;;5054518;28;20174;-79
2022/04/08 05:30:08;;;;;;;29.30;7.63;;;14.70;99.90;;;;;;5055149;28;20025;-80
2022/04/08 05:32:34;;;;;;;32.22;6.90;;;14.80;99.90;;;;;;5072994;28;20540;-80
2022/04/08 05:35:00;;;;;;;29.20;7.75;;;14.90;99.90;;;;;;5072809;28;20053;-79
2022/04/08 05:37:28;;;;;;;28.55;6.22;;;14.90;99.90;;;;;;5073450;28;20107;-80
2022/04/08 05:39:54;;;;;;;28.48;6.32;;;14.90;99.90;;;;;;5073321;28;20051;-81
2022/04/08 05:42:20;;;;;;;33.50;6.47;;;15.00;99.90;;;;;;5054863;28;20052;-80
2022/04/08 05:44:46;;;;;;;31.65;5.90;;;15.00;99.80;;;;;;5072393;28;20080;-80
2022/04/08 05:47:12;;;;;;;27.20;6.85;;;15.00;99.60;;;;;;5054823;28;20504;-80
2022/04/08 05:49:37;;;;;;;28.45;5.57;;;15.10;99.30;;;;;;5072950;28;20024;-81
2022/04/08 05:52:04;;;;;;;28.80;6.78;;;15.10;99.10;;;;;;5072485;28;20489;-83
2022/04/08 05:54:33;;;;;;;24.42;5.78;;;15.10;99.00;;;;;;5054340;28;20017;-82
2022/04/08 05:57:00;;;;;;;30.90;6.40;;;15.20;98.90;;;;;;5074128;28;20044;-81
2022/04/08 05:59:28;;;;;;;26.98;6.90;;;15.30;98.80;;;;;;5073077;28;20115;-78
2022/04/08 06:01:54;;;;;;;25.08;5.47;;;15.30;98.60;;;;;;5072464;28;20413;-80
2022/04/08 06:04:21;;;;;;;28.27;5.97;;;15.50;98.40;;;;;;5072259;28;20031;-79
2022/04/08 06:06:47;;;;;;;27.40;6.30;;;15.60;98.00;;;;;;5078609;28;20048;-75
2022/04/08 06:09:13;;;;;;;30.77;6.15;;;15.80;97.60;;;;;;5078703;28;20021;-77
2022/04/08 06:11:38;;;;;;;26.17;6.93;;;16.00;97.20;;;;;;5075389;28;20013;-75
2022/04/08 06:14:04;;;;;;;27.58;6.40;;;16.00;96.70;;;;;;5071978;28;20111;-76
2022/04/08 06:16:30;;;;;;;28.77;7.05;;;16.20;96.50;;;;;;5073451;28;20017;-77
2022/04/08 06:18:56;;;;;;;22.33;5.88;;;16.40;96.30;;;;;;5071962;28;20162;-78
2022/04/08 06:21:22;;;;;;;27.77;6.25;;;16.50;96.00;;;;;;5070407;28;20021;-76
2022/04/08 06:23:49;;;;;;;29.65;6.93;;;16.60;95.50;;;;;;5071739;28;20029;-79
2022/04/08 06:26:15;;;;;;;28.65;6.90;;;16.60;95.30;;;;;;5075902;28;20512;-78
2022/04/08 06:28:41;;;;;;;31.25;6.30;;;16.60;95.10;;;;;;5075015;28;20108;-79
2022/04/08 06:31:07;;;;;;;26.02;6.10;;;16.60;95.00;;;;;;5073708;28;20401;-77
2022/04/08 06:33:33;;;;;;;31.27;6.20;;;16.70;94.80;;;;;;5075034;28;20028;-80
2022/04/08 06:36:00;;;;;;;30.73;6.20;;;16.70;94.80;;;;;;5068166;28;20033;-79
2022/04/08 06:38:26;;;;;;;28.20;6.43;;;16.70;94.50;;;;;;5056851;28;20029;-75
2022/04/08 06:40:51;;;;;;;28.33;5.90;;;16.70;94.50;;;;;;5074861;28;20371;-78
2022/04/08 06:43:17;;;;;;;26.27;6.57;;;16.70;94.40;;;;;;5075709;28;20421;-78
2022/04/08 06:45:44;;;;;;;28.60;6.10;;;16.70;94.40;;;;;;5076445;28;20053;-79
2022/04/08 06:48:10;;;;;;;34.67;6.70;;;16.60;94.30;;;;;;5076227;28;20423;-77
2022/04/08 06:50:35;;;;;;;29.60;6.63;;;16.60;94.30;;;;;;5075830;28;20024;-77
2022/04/08 06:53:01;;;;;;;24.20;5.95;;;16.60;94.20;;;;;;5074836;28;20062;-78
2022/04/08 06:55:29;;;;;;;24.38;5.68;;;16.60;94.10;;;;;;5074480;28;20048;-79
2022/04/08 06:57:58;;;;;;;28.13;6.38;;;16.60;94.00;;;;;;5073506;28;20024;-76
2022/04/08 07:00:23;;;;;;;31.98;6.65;;;16.60;94.00;;;;;;5074723;28;20024;-76
2022/04/08 07:02:49;;;;;;;23.85;5.82;;;16.50;93.90;;;;;;5074587;28;20353;-77
2022/04/08 07:05:15;;;;;;;33.03;6.30;;;16.60;93.90;;;;;;5073992;28;20054;-78
2022/04/08 07:07:40;;;;;;;23.33;5.32;;;16.60;93.90;;;;;;5074400;28;20024;-78
2022/04/08 07:10:07;;;;;;;33.65;6.15;;;16.60;93.90;;;;;;5074065;28;20044;-78
2022/04/08 07:12:34;;;;;;;27.52;6.30;;;16.60;93.90;;;;;;5074334;28;20028;-82
2022/04/08 07:15:00;;;;;;;32.28;6.55;;;16.60;93.70;;;;;;5074244;28;20025;-80
2022/04/08 07:17:31;;;;;;;31.60;5.80;;;16.60;93.80;;;;;;5074007;28;20036;-76
2022/04/08 07:19:57;;;;;;;38.08;7.80;;;16.60;93.70;;;;;;5056350;28;20036;-78
2022/04/08 07:22:23;;;;;;;35.70;7.43;;;16.60;93.80;;;;;;5074159;28;20021;-78
2022/04/08 07:24:50;;;;;;;28.90;7.13;;;16.60;93.80;;;;;;5074221;28;20032;-77
2022/04/08 07:27:17;;;;;;;27.73;6.25;;;16.60;93.90;;;;;;5074885;28;20021;-79
2022/04/08 07:29:43;;;;;;;29.00;5.43;;;16.60;93.90;;;;;;5074185;28;20056;-77
2022/04/08 07:32:10;;;;;;;27.65;6.47;;;16.60;93.80;;;;;;5075128;28;20042;-79
2022/04/08 07:34:36;;;;;;;27.60;6.47;;;16.60;93.80;;;;;;5075014;28;20036;-76
2022/04/08 07:37:02;;;;;;;34.28;6.22;;;16.60;93.80;;;;;;5074231;28;20096;-75
2022/04/08 07:39:29;;;;;;;31.90;6.55;;;16.60;93.90;;;;;;5074070;28;20036;-77
2022/04/08 07:41:55;;;;;;;26.75;6.43;;;16.70;93.90;;;;;;5073645;28;20230;-76
2022/04/08 07:44:21;;;;;;;28.95;7.50;;;16.70;93.80;;;;;;5073496;28;20107;-74
2022/04/08 07:46:46;;;;;;;30.98;6.63;;;16.70;93.70;;;;;;5073874;28;20051;-77
2022/04/08 07:49:12;;;;;;;24.05;5.38;;;16.70;93.70;;;;;;5073918;28;20013;-76
2022/04/08 07:51:38;;;;;;;27.60;5.55;;;16.70;93.70;;;;;;5073734;28;20465;-75
2022/04/08 07:54:03;;;;;;;28.27;6.22;;;16.70;93.60;;;;;;5073622;28;20021;-76
2022/04/08 07:56:33;;;;;;;24.60;6.35;;;16.80;93.50;;;;;;5073517;28;20025;-75
2022/04/08 07:58:58;;;;;;;25.45;6.40;;;16.90;93.30;;;;;;5073671;28;20170;-77
2022/04/08 08:01:24;;;;;;;23.50;5.85;;;16.90;93.10;;;;;;5073558;28;20100;-78
2022/04/08 08:03:50;;;;;;;27.17;5.45;;;17.00;93.00;;;;;;5073395;28;20028;-75
2022/04/08 08:06:16;;;;;;;31.35;6.70;;;17.10;93.00;;;;;;5073279;28;20029;-76
2022/04/08 08:08:41;;;;;;;21.70;5.22;;;17.20;92.60;;;;;;5073567;28;20161;-76
2022/04/08 08:11:11;;;;;;;32.67;5.75;;;17.30;92.20;;;;;;5073218;28;20067;-74
2022/04/08 08:13:38;;;;;;;30.83;6.28;;;17.50;91.90;;;;;;5073092;28;20031;-75
2022/04/08 08:16:07;;;;;;;21.55;5.90;;;17.60;91.50;;;;;;5073456;28;20031;-75
2022/04/08 08:18:33;;;;;;;30.42;5.95;;;17.80;91.30;;;;;;5055589;28;20021;-76
2022/04/08 08:20:59;;;;;;;23.98;5.53;;;17.90;90.70;;;;;;5073501;28;20036;-75
2022/04/08 08:23:25;;;;;;;27.80;6.13;;;18.00;90.50;;;;;;5073478;28;20024;-77
2022/04/08 08:25:50;;;;;;;25.25;6.03;;;18.10;90.20;;;;;;5073278;28;20104;-77
2022/04/08 08:28:16;;;;;;;24.35;5.25;;;18.20;89.90;;;;;;5073266;28;20024;-76
2022/04/08 08:30:44;;;;;;;24.80;6.40;;;18.30;89.20;;;;;;5073202;28;20078;-77
2022/04/08 08:33:10;;;;;;;25.20;6.32;;;18.40;88.50;;;;;;5073019;28;20028;-79
2022/04/08 08:35:36;;;;;;;39.45;6.97;;;18.40;88.00;;;;;;5072948;28;20032;-77
2022/04/08 08:38:02;;;;;;;32.10;7.35;;;18.40;87.90;;;;;;5072676;28;20024;-79
2022/04/08 08:40:32;;;;;;;28.67;6.40;;;18.40;87.50;;;;;;5072718;28;20029;-77
2022/04/08 08:43:02;;;;;;;18.30;5.22;;;18.40;87.30;;;;;;5072551;28;20112;-77
2022/04/08 08:45:34;;;;;;;24.05;6.10;;;18.50;86.00;;;;;;5054886;28;20402;-77
2022/04/08 08:48:02;;;;;;;29.75;6.05;;;18.60;85.70;;;;;;5072398;28;20032;-77
2022/04/08 08:50:29;;;;;;;23.75;5.45;;;18.80;84.50;;;;;;5073067;28;20051;-76
2022/04/08 08:52:55;;;;;;;23.73;5.03;;;18.90;83.40;;;;;;5073882;28;20025;-75
2022/04/08 08:55:21;;;;;;;20.98;5.70;;;19.00;82.10;;;;;;5073640;28;20068;-77
2022/04/08 08:57:49;;;;;;;28.48;5.15;;;19.00;81.90;;;;;;5074173;28;20481;-77
2022/04/08 09:00:19;;;;;;;22.90;5.20;;;19.00;81.50;;;;;;5072801;28;20571;-78
2022/04/08 09:02:49;;;;;;;28.90;5.13;;;19.00;81.80;;;;;;5073029;28;20013;-75
2022/04/08 09:05:21;;;;;;;27.38;6.90;;;18.90;81.40;;;;;;5072924;28;20029;-76
2022/04/08 09:07:54;;;;;;;28.80;5.20;;;19.00;81.50;;;;;;5072648;28;20359;-78
2022/04/08 09:10:26;;;;;;;24.42;4.97;;;18.90;80.80;;;;;;5072691;28;20078;-78
2022/04/08 09:12:56;;;;;;;22.90;5.97;;;19.00;81.10;;;;;;5072570;28;20059;-77
2022/04/08 09:15:23;;;;;;;20.55;5.40;;;19.10;80.50;;;;;;5072267;28;20016;-79
2022/04/08 09:17:50;;;;;;;23.15;5.55;;;19.10;80.60;;;;;;5072341;28;20040;-76
2022/04/08 09:20:16;;;;;;;27.88;5.57;;;19.20;79.90;;;;;;5072318;28;20121;-76
2022/04/08 09:22:51;;;;;;;27.98;5.65;;;19.20;79.40;;;;;;5072539;28;20025;-77
2022/04/08 09:25:19;;;;;;;25.23;5.25;;;19.20;79.30;;;;;;5072411;28;20075;-77
2022/04/08 09:27:45;;;;;;;20.95;5.40;;;19.20;78.90;;;;;;5072362;28;20029;-76
2022/04/08 09:30:18;;;;;;;26.20;5.28;;;19.20;79.50;;;;;;5072586;28;20094;-79
2022/04/08 09:32:44;;;;;;;29.30;5.38;;;19.10;79.50;;;;;;5072959;28;20032;-79
2022/04/08 09:35:18;;;;;;;25.63;6.47;;;19.00;80.10;;;;;;5072665;28;20104;-78
2022/04/08 09:37:55;;;;;;;29.00;6.18;;;19.00;80.90;;;;;;5072170;28;20033;-77
2022/04/08 09:40:23;;;;;;;24.95;6.40;;;19.00;80.90;;;;;;5072216;28;20032;-78
2022/04/08 09:42:49;;;;;;;29.02;7.22;;;19.00;81.10;;;;;;5072088;28;20020;-78
2022/04/08 09:45:27;;;;;;;33.72;6.68;;;19.10;80.90;;;;;;5074034;28;20110;-77
2022/04/08 09:47:53;;;;;;;30.35;6.35;;;19.10;81.20;;;;;;5074517;28;20029;-76
2022/04/08 09:50:19;;;;;;;34.35;5.63;;;19.20;80.00;;;;;;5072613;28;20024;-79
2022/04/08 09:52:45;;;;;;;23.65;4.97;;;19.20;79.70;;;;;;5072193;28;20336;-77
2022/04/08 09:55:11;;;;;;;20.27;5.35;;;19.20;79.30;;;;;;5072160;28;20179;-79
2022/04/08 09:57:39;;;;;;;22.77;5.97;;;19.30;79.20;;;;;;5072222;28;20483;-77
2022/04/08 10:00:07;;;;;;;24.75;6.15;;;19.60;77.90;;;;;;5057819;28;20036;-79
2022/04/08 10:02:35;;;;;;;27.75;6.25;;;19.80;77.00;;;;;;5075705;28;20025;-78
2022/04/08 10:05:01;;;;;;;29.85;7.00;;;19.90;76.10;;;;;;5057881;28;20035;-78
2022/04/08 10:07:29;;;;;;;30.27;7.95;;;20.00;75.70;;;;;;5075248;28;20044;-79
2022/04/08 10:10:12;;;;;;;29.13;7.38;;;20.00;75.50;;;;;;5075575;28;20461;-75
2022/04/08 10:13:12;;;;;;;24.98;5.97;;;20.00;76.10;;;;;;5075244;28;20110;-77
2022/04/08 10:15:42;;;;;;;29.80;6.18;;;20.00;76.00;;;;;;5075153;28;20441;-76
2022/04/08 10:18:08;;;;;;;32.85;5.93;;;20.00;75.00;;;;;;5075310;28;20028;-75
2022/04/08 10:20:36;;;;;;;26.67;6.57;;;19.90;74.90;;;;;;5075361;28;20115;-77
2022/04/08 10:23:15;;;;;;;25.80;5.65;;;19.90;75.40;;;;;;5075419;28;20461;-76
2022/04/08 10:25:41;;;;;;;22.63;5.47;;;19.80;75.90;;;;;;5075138;28;20025;-77
2022/04/08 10:28:09;;;;;;;26.92;5.70;;;19.60;76.10;;;;;;5074890;28;20027;-77
2022/04/08 10:30:42;;;;;;;25.20;5.82;;;19.60;76.70;;;;;;5074922;28;20040;-75
2022/04/08 10:33:09;;;;;;;21.88;5.63;;;19.50;77.20;;;;;;5074975;28;20052;-76
2022/04/08 10:35:37;;;;;;;33.67;5.95;;;19.40;77.30;;;;;;5074727;28;20039;-76
2022/04/08 10:38:06;;;;;;;24.30;6.53;;;19.40;77.80;;;;;;5075059;28;20033;-76
2022/04/08 10:40:37;;;;;;;30.92;5.85;;;19.50;78.00;;;;;;5074723;28;20039;-76
2022/04/08 10:43:08;;;;;;;24.27;7.10;;;19.50;77.70;;;;;;5056673;28;20358;-75
2022/04/08 10:45:35;;;;;;;26.15;5.45;;;19.70;77.20;;;;;;5074620;28;20083;-75
2022/04/08 10:48:19;;;;;;;27.60;6.63;;;19.70;76.90;;;;;;5075040;28;20033;-76
2022/04/08 10:50:45;;;;;;;34.75;6.93;;;19.90;77.30;;;;;;5074773;28;20024;-79
2022/04/08 10:53:13;;;;;;;19.05;5.07;;;19.90;76.00;;;;;;5074655;28;20070;-77
2022/04/08 10:55:55;;;;;;;26.38;5.53;;;20.00;75.50;;;;;;5074695;28;20197;-78
2022/04/08 10:58:33;;;;;;;24.38;5.75;;;19.90;75.30;;;;;;5075008;28;20060;-79
2022/04/08 11:00:59;;;;;;;22.60;6.18;;;19.90;75.40;;;;;;5056862;28;20169;-79
2022/04/08 11:03:28;;;;;;;22.45;5.90;;;19.90;75.60;;;;;;5074618;28;20017;-78
2022/04/08 11:05:55;;;;;;;26.00;5.40;;;19.90;75.30;;;;;;5074418;28;20033;-76
2022/04/08 11:08:27;;;;;;;27.52;5.88;;;20.00;75.10;;;;;;5074470;28;20048;-77
2022/04/08 11:10:59;;;;;;;18.70;5.40;;;20.00;74.90;;;;;;5073854;28;20031;-77
2022/04/08 11:13:25;;;;;;;22.58;6.00;;;20.00;74.50;;;;;;5056283;28;20063;-77
2022/04/08 11:15:52;;;;;;;26.23;6.07;;;20.10;74.50;;;;;;5074368;28;20032;-79
2022/04/08 11:18:19;;;;;;;29.48;5.63;;;20.20;74.00;;;;;;5074118;28;20107;-79
2022/04/08 11:20:49;;;;;;;26.80;5.18;;;20.30;73.20;;;;;;5074493;28;20033;-78
2022/04/08 11:23:24;;;;;;;22.30;5.65;;;20.40;72.90;;;;;;5074235;28;20079;-78
2022/04/08 11:25:50;;;;;;;21.63;5.28;;;20.40;72.60;;;;;;5074882;28;20021;-79
2022/04/08 11:28:16;;;;;;;20.17;4.68;;;20.40;72.50;;;;;;5074352;28;20073;-78
2022/04/08 11:30:42;;;;;;;24.20;5.38;;;20.60;72.50;;;;;;5073811;28;20511;-78
2022/04/08 11:33:19;;;;;;;23.38;5.18;;;20.60;71.80;;;;;;5074154;28;20025;-76
2022/04/08 11:35:45;;;;;;;25.88;7.20;;;20.60;71.60;;;;;;5074113;28;20500;-78
2022/04/08 11:38:20;;;;;;;26.77;5.25;;;20.70;72.50;;;;;;5056073;28;20526;-78
2022/04/08 11:40:46;;;;;;;25.33;4.70;;;20.70;71.90;;;;;;5074066;28;20550;-78
2022/04/08 11:43:13;;;;;;;21.95;5.05;;;20.60;71.40;;;;;;5073577;28;20032;-77
2022/04/08 11:45:39;;;;;;;23.95;4.55;;;20.50;71.00;;;;;;5074754;28;20048;-77
2022/04/08 11:48:13;;;;;;;17.45;4.05;;;20.50;71.10;;;;;;5074299;28;20038;-77
2022/04/08 11:50:40;;;;;;;;;;;20.50;71.50;;;;;;5074787;28;20067;-75
2022/04/08 11:53:14;;;;;;;19.70;4.40;;;20.60;69.90;;;;;;5074157;28;20428;-77
2022/04/08 11:55:50;;;;;;;18.20;4.05;;;20.80;70.20;;;;;;5074463;28;20461;-76
2022/04/08 11:58:18;;;;;;;20.27;5.18;;;20.80;69.40;;;;;;5075242;28;20020;-75
2022/04/08 12:00:47;;;;;;;16.85;4.30;;;20.80;70.00;;;;;;5075881;28;20027;-76
2022/04/08 12:03:26;;;;;;;15.25;4.38;;;20.70;69.80;;;;;;5056135;28;20108;-75
2022/04/08 12:05:52;;;;;;;17.63;4.15;;;20.70;69.80;;;;;;5073758;28;20033;-78
2022/04/08 12:08:19;;;;;;;18.88;3.97;;;20.80;69.60;;;;;;5074310;28;20477;-77
2022/04/08 12:10:45;;;;;;;17.45;3.60;;;20.80;69.50;;;;;;5073391;28;20029;-76
2022/04/08 12:13:19;;;;;;;18.02;4.25;;;20.90;69.70;;;;;;5073290;28;20028;-75
2022/04/08 12:15:46;;;;;;;17.17;3.53;;;20.80;67.90;;;;;;5073250;28;20028;-77
2022/04/08 12:18:12;;;;;;;15.93;3.60;;;20.80;69.40;;;;;;5073289;28;20039;-74
2022/04/08 12:20:44;;;;;;;23.25;3.65;;;20.90;68.60;;;;;;5073240;28;20024;-74
2022/04/08 12:23:10;;;;;;;16.85;3.80;;;21.00;67.20;;;;;;5072481;28;20051;-75
2022/04/08 12:25:37;;;;;;;18.05;3.53;;;21.00;67.80;;;;;;5072894;28;20049;-77
2022/04/08 12:28:10;;;;;;;16.58;3.95;;;21.00;66.90;;;;;;5055282;28;20097;-75
2022/04/08 12:30:36;;;;;;;;;;;21.00;67.20;;;;;;5073381;28;20028;-74
2022/04/08 12:33:02;;;;;;;15.20;3.33;;;21.10;65.90;;;;;;5072953;28;19904;-76
2022/04/08 12:35:28;;;;;;;13.70;2.90;;;21.10;66.60;;;;;;5072850;28;20021;-74
2022/04/08 12:37:53;;;;;;;11.65;2.88;;;21.10;66.10;;;;;;5072738;28;20113;-75